Pinehurst, Massachusetts
Current Conditions -  °F | °C
As of 8:56 PM on Saturday 22 Nov 2014 (Local Time) from KBED Reporting Station
Overcast Overcast  
Wind Chill: 32°   Ceiling: 3700
Heat Index: 39°   Visibility: 10mi
Dew Point: 16°   Wind: 10mph
Humidity: 39%   Direction: 230°SW
Pressure: 30.07"   Gusts: 18mph
Location:  42.53°N, 71.23°W
Report Text: KBED 230156Z AUTO 23009G16KT 10SM BKN037 OVC060 04/M09 A3007 RMK AO2 SLP200 T00391089 TSNO
Loading
Personal Weather Stations






























Interactive Weather Map New forecast layout! Learn more

10-Day Weather Forecast

Advertisements
Track Severe Weather on mobile